sensor_id;sensor_type;location;lat;lon;timestamp;P1;durP1;ratioP1;P2;durP2;ratioP2
68315;SDS011;55508;54.368;18.406;2022-12-07T00:01:23;53.00;;;22.98;;
68315;SDS011;55508;54.368;18.406;2022-12-07T00:04:01;61.60;;;23.83;;
68315;SDS011;55508;54.368;18.406;2022-12-07T00:06:39;53.05;;;22.38;;
68315;SDS011;55508;54.368;18.406;2022-12-07T00:09:12;51.40;;;22.35;;
68315;SDS011;55508;54.368;18.406;2022-12-07T00:11:41;50.28;;;21.58;;
68315;SDS011;55508;54.368;18.406;2022-12-07T00:14:12;57.25;;;22.38;;
68315;SDS011;55508;54.368;18.406;2022-12-07T00:19:09;52.45;;;21.75;;
68315;SDS011;55508;54.368;18.406;2022-12-07T00:21:37;49.45;;;20.85;;
68315;SDS011;55508;54.368;18.406;2022-12-07T00:24:05;50.15;;;21.90;;
68315;SDS011;55508;54.368;18.406;2022-12-07T00:26:34;51.95;;;22.48;;
68315;SDS011;55508;54.368;18.406;2022-12-07T00:29:06;36.83;;;15.95;;
68315;SDS011;55508;54.368;18.406;2022-12-07T00:31:43;54.70;;;21.15;;
68315;SDS011;55508;54.368;18.406;2022-12-07T00:34:14;50.05;;;21.65;;
68315;SDS011;55508;54.368;18.406;2022-12-07T00:36:42;52.05;;;21.00;;
68315;SDS011;55508;54.368;18.406;2022-12-07T00:39:10;54.70;;;22.10;;
68315;SDS011;55508;54.368;18.406;2022-12-07T00:41:37;64.82;;;22.15;;
68315;SDS011;55508;54.368;18.406;2022-12-07T00:44:04;55.92;;;22.15;;
68315;SDS011;55508;54.368;18.406;2022-12-07T00:46:31;53.83;;;21.30;;
68315;SDS011;55508;54.368;18.406;2022-12-07T00:48:58;56.83;;;21.73;;
68315;SDS011;55508;54.368;18.406;2022-12-07T00:51:25;54.38;;;21.95;;
68315;SDS011;55508;54.368;18.406;2022-12-07T00:53:53;51.00;;;21.50;;
68315;SDS011;55508;54.368;18.406;2022-12-07T00:56:24;49.95;;;20.30;;
68315;SDS011;55508;54.368;18.406;2022-12-07T00:58:54;50.15;;;19.48;;
68315;SDS011;55508;54.368;18.406;2022-12-07T01:01:23;53.35;;;19.83;;
68315;SDS011;55508;54.368;18.406;2022-12-07T01:03:52;49.70;;;19.80;;
68315;SDS011;55508;54.368;18.406;2022-12-07T01:06:20;50.05;;;19.83;;
68315;SDS011;55508;54.368;18.406;2022-12-07T01:08:48;51.30;;;19.10;;
68315;SDS011;55508;54.368;18.406;2022-12-07T01:11:16;51.63;;;20.33;;
68315;SDS011;55508;54.368;18.406;2022-12-07T01:13:44;52.35;;;20.85;;
68315;SDS011;55508;54.368;18.406;2022-12-07T01:16:13;52.75;;;20.15;;
68315;SDS011;55508;54.368;18.406;2022-12-07T01:18:42;53.63;;;19.42;;
68315;SDS011;55508;54.368;18.406;2022-12-07T01:21:13;46.45;;;19.42;;
68315;SDS011;55508;54.368;18.406;2022-12-07T01:23:45;56.80;;;20.55;;
68315;SDS011;55508;54.368;18.406;2022-12-07T01:26:14;55.90;;;20.10;;
68315;SDS011;55508;54.368;18.406;2022-12-07T01:28:42;56.50;;;18.95;;
68315;SDS011;55508;54.368;18.406;2022-12-07T01:31:11;54.75;;;19.45;;
68315;SDS011;55508;54.368;18.406;2022-12-07T01:33:42;55.00;;;17.95;;
68315;SDS011;55508;54.368;18.406;2022-12-07T01:36:21;50.58;;;19.48;;
68315;SDS011;55508;54.368;18.406;2022-12-07T01:38:50;59.35;;;19.67;;
68315;SDS011;55508;54.368;18.406;2022-12-07T01:41:20;56.92;;;19.38;;
68315;SDS011;55508;54.368;18.406;2022-12-07T01:46:53;59.33;;;19.80;;
68315;SDS011;55508;54.368;18.406;2022-12-07T01:49:33;53.70;;;17.83;;
68315;SDS011;55508;54.368;18.406;2022-12-07T01:52:20;56.63;;;18.15;;
68315;SDS011;55508;54.368;18.406;2022-12-07T01:54:51;48.17;;;16.85;;
68315;SDS011;55508;54.368;18.406;2022-12-07T01:57:20;53.90;;;17.77;;
68315;SDS011;55508;54.368;18.406;2022-12-07T01:59:48;46.75;;;16.10;;
68315;SDS011;55508;54.368;18.406;2022-12-07T02:02:24;50.60;;;16.08;;
68315;SDS011;55508;54.368;18.406;2022-12-07T02:04:55;45.67;;;16.58;;
68315;SDS011;55508;54.368;18.406;2022-12-07T02:07:24;53.63;;;17.38;;
68315;SDS011;55508;54.368;18.406;2022-12-07T02:09:51;52.92;;;16.23;;
68315;SDS011;55508;54.368;18.406;2022-12-07T02:12:19;59.53;;;17.80;;
68315;SDS011;55508;54.368;18.406;2022-12-07T02:14:47;56.17;;;15.77;;
68315;SDS011;55508;54.368;18.406;2022-12-07T02:27:46;40.92;;;13.27;;
68315;SDS011;55508;54.368;18.406;2022-12-07T02:30:17;38.88;;;13.98;;
68315;SDS011;55508;54.368;18.406;2022-12-07T02:35:20;39.38;;;13.23;;
68315;SDS011;55508;54.368;18.406;2022-12-07T02:40:43;45.08;;;14.10;;
68315;SDS011;55508;54.368;18.406;2022-12-07T02:43:23;42.95;;;13.55;;
68315;SDS011;55508;54.368;18.406;2022-12-07T02:45:52;55.65;;;14.45;;
68315;SDS011;55508;54.368;18.406;2022-12-07T02:48:22;44.47;;;14.13;;
68315;SDS011;55508;54.368;18.406;2022-12-07T02:50:51;63.08;;;14.48;;
68315;SDS011;55508;54.368;18.406;2022-12-07T02:53:35;43.75;;;13.43;;
68315;SDS011;55508;54.368;18.406;2022-12-07T02:58:42;49.08;;;13.95;;
68315;SDS011;55508;54.368;18.406;2022-12-07T03:12:53;29.70;;;11.95;;
68315;SDS011;55508;54.368;18.406;2022-12-07T03:18:12;32.60;;;11.68;;
68315;SDS011;55508;54.368;18.406;2022-12-07T03:20:41;26.05;;;11.00;;
68315;SDS011;55508;54.368;18.406;2022-12-07T03:23:10;21.90;;;10.65;;
68315;SDS011;55508;54.368;18.406;2022-12-07T03:25:40;29.23;;;11.13;;
68315;SDS011;55508;54.368;18.406;2022-12-07T03:28:08;24.50;;;10.98;;
68315;SDS011;55508;54.368;18.406;2022-12-07T03:30:42;24.05;;;9.65;;
68315;SDS011;55508;54.368;18.406;2022-12-07T03:36:17;20.35;;;10.18;;
68315;SDS011;55508;54.368;18.406;2022-12-07T03:38:45;19.05;;;8.75;;
68315;SDS011;55508;54.368;18.406;2022-12-07T03:41:20;22.25;;;9.82;;
68315;SDS011;55508;54.368;18.406;2022-12-07T03:43:50;21.20;;;10.02;;
68315;SDS011;55508;54.368;18.406;2022-12-07T03:54:23;15.02;;;8.63;;
68315;SDS011;55508;54.368;18.406;2022-12-07T03:56:58;16.45;;;8.98;;
68315;SDS011;55508;54.368;18.406;2022-12-07T03:59:26;13.52;;;8.05;;
68315;SDS011;55508;54.368;18.406;2022-12-07T04:01:55;20.15;;;8.20;;
68315;SDS011;55508;54.368;18.406;2022-12-07T04:04:24;14.02;;;7.82;;
68315;SDS011;55508;54.368;18.406;2022-12-07T04:06:51;13.88;;;7.53;;
68315;SDS011;55508;54.368;18.406;2022-12-07T04:09:19;11.45;;;7.50;;
68315;SDS011;55508;54.368;18.406;2022-12-07T04:11:46;11.98;;;7.38;;
68315;SDS011;55508;54.368;18.406;2022-12-07T04:14:13;19.23;;;8.50;;
68315;SDS011;55508;54.368;18.406;2022-12-07T04:16:45;17.15;;;8.45;;
68315;SDS011;55508;54.368;18.406;2022-12-07T04:19:12;23.83;;;9.40;;
68315;SDS011;55508;54.368;18.406;2022-12-07T04:21:39;17.70;;;8.85;;
68315;SDS011;55508;54.368;18.406;2022-12-07T04:24:07;21.17;;;11.18;;
68315;SDS011;55508;54.368;18.406;2022-12-07T04:26:34;19.60;;;10.82;;
68315;SDS011;55508;54.368;18.406;2022-12-07T04:29:02;19.75;;;11.02;;
68315;SDS011;55508;54.368;18.406;2022-12-07T04:31:33;14.23;;;9.25;;
68315;SDS011;55508;54.368;18.406;2022-12-07T04:34:01;18.13;;;8.52;;
68315;SDS011;55508;54.368;18.406;2022-12-07T04:36:28;13.98;;;7.88;;
68315;SDS011;55508;54.368;18.406;2022-12-07T04:38:55;13.38;;;6.82;;
68315;SDS011;55508;54.368;18.406;2022-12-07T04:41:23;11.88;;;6.45;;
68315;SDS011;55508;54.368;18.406;2022-12-07T04:43:57;12.05;;;7.10;;
68315;SDS011;55508;54.368;18.406;2022-12-07T04:46:25;8.73;;;5.90;;
68315;SDS011;55508;54.368;18.406;2022-12-07T04:48:54;8.02;;;6.40;;
68315;SDS011;55508;54.368;18.406;2022-12-07T04:51:22;7.78;;;5.80;;
68315;SDS011;55508;54.368;18.406;2022-12-07T04:53:51;7.10;;;5.78;;
68315;SDS011;55508;54.368;18.406;2022-12-07T04:56:18;6.85;;;5.53;;
68315;SDS011;55508;54.368;18.406;2022-12-07T04:58:46;8.80;;;5.03;;
68315;SDS011;55508;54.368;18.406;2022-12-07T05:01:14;9.20;;;5.75;;
68315;SDS011;55508;54.368;18.406;2022-12-07T05:03:42;8.32;;;5.35;;
68315;SDS011;55508;54.368;18.406;2022-12-07T05:06:10;7.28;;;5.13;;
68315;SDS011;55508;54.368;18.406;2022-12-07T05:08:39;6.80;;;5.75;;
68315;SDS011;55508;54.368;18.406;2022-12-07T05:11:07;12.80;;;6.05;;
68315;SDS011;55508;54.368;18.406;2022-12-07T05:13:35;7.35;;;6.32;;
68315;SDS011;55508;54.368;18.406;2022-12-07T05:16:03;6.80;;;5.88;;
68315;SDS011;55508;54.368;18.406;2022-12-07T05:18:30;7.95;;;6.60;;
68315;SDS011;55508;54.368;18.406;2022-12-07T05:20:57;9.52;;;7.20;;
68315;SDS011;55508;54.368;18.406;2022-12-07T05:23:24;8.05;;;6.95;;
68315;SDS011;55508;54.368;18.406;2022-12-07T05:25:51;10.52;;;7.43;;
68315;SDS011;55508;54.368;18.406;2022-12-07T05:28:18;13.35;;;9.60;;
68315;SDS011;55508;54.368;18.406;2022-12-07T05:30:46;11.77;;;8.32;;
68315;SDS011;55508;54.368;18.406;2022-12-07T05:33:13;8.52;;;7.57;;
68315;SDS011;55508;54.368;18.406;2022-12-07T05:35:40;9.23;;;7.95;;
68315;SDS011;55508;54.368;18.406;2022-12-07T05:38:07;7.28;;;6.57;;
68315;SDS011;55508;54.368;18.406;2022-12-07T05:40:34;7.40;;;6.35;;
68315;SDS011;55508;54.368;18.406;2022-12-07T05:43:01;6.85;;;6.25;;
68315;SDS011;55508;54.368;18.406;2022-12-07T05:45:30;5.75;;;5.25;;
68315;SDS011;55508;54.368;18.406;2022-12-07T05:47:57;4.68;;;4.07;;
68315;SDS011;55508;54.368;18.406;2022-12-07T05:50:25;4.32;;;4.03;;
68315;SDS011;55508;54.368;18.406;2022-12-07T05:52:59;3.95;;;3.63;;
68315;SDS011;55508;54.368;18.406;2022-12-07T05:55:26;2.58;;;2.38;;
68315;SDS011;55508;54.368;18.406;2022-12-07T05:57:53;3.47;;;2.72;;
68315;SDS011;55508;54.368;18.406;2022-12-07T06:00:39;2.65;;;2.22;;
68315;SDS011;55508;54.368;18.406;2022-12-07T06:03:06;2.60;;;2.40;;
68315;SDS011;55508;54.368;18.406;2022-12-07T06:05:33;3.00;;;2.70;;
68315;SDS011;55508;54.368;18.406;2022-12-07T06:08:01;3.72;;;3.42;;
68315;SDS011;55508;54.368;18.406;2022-12-07T06:10:31;3.28;;;2.97;;
68315;SDS011;55508;54.368;18.406;2022-12-07T06:12:58;4.57;;;4.18;;
68315;SDS011;55508;54.368;18.406;2022-12-07T06:15:26;4.82;;;4.43;;
68315;SDS011;55508;54.368;18.406;2022-12-07T06:17:53;5.10;;;4.43;;
68315;SDS011;55508;54.368;18.406;2022-12-07T06:20:20;4.35;;;4.05;;
68315;SDS011;55508;54.368;18.406;2022-12-07T06:22:47;3.95;;;3.65;;
68315;SDS011;55508;54.368;18.406;2022-12-07T06:25:14;3.85;;;3.55;;
68315;SDS011;55508;54.368;18.406;2022-12-07T06:27:42;3.60;;;3.30;;
68315;SDS011;55508;54.368;18.406;2022-12-07T06:30:09;3.60;;;3.30;;
68315;SDS011;55508;54.368;18.406;2022-12-07T06:32:36;3.50;;;3.17;;
68315;SDS011;55508;54.368;18.406;2022-12-07T06:35:04;3.75;;;3.45;;
68315;SDS011;55508;54.368;18.406;2022-12-07T06:37:31;4.82;;;3.47;;
68315;SDS011;55508;54.368;18.406;2022-12-07T06:39:59;3.90;;;3.50;;
68315;SDS011;55508;54.368;18.406;2022-12-07T06:42:27;4.43;;;2.75;;
68315;SDS011;55508;54.368;18.406;2022-12-07T06:44:54;9.82;;;3.95;;
68315;SDS011;55508;54.368;18.406;2022-12-07T06:47:21;10.73;;;5.95;;
68315;SDS011;55508;54.368;18.406;2022-12-07T06:50:06;14.55;;;5.75;;
68315;SDS011;55508;54.368;18.406;2022-12-07T06:52:34;12.00;;;5.95;;
68315;SDS011;55508;54.368;18.406;2022-12-07T06:55:02;8.68;;;5.40;;
68315;SDS011;55508;54.368;18.406;2022-12-07T06:57:34;11.00;;;6.13;;
68315;SDS011;55508;54.368;18.406;2022-12-07T07:00:03;6.57;;;4.95;;
68315;SDS011;55508;54.368;18.406;2022-12-07T07:02:33;4.43;;;4.03;;
68315;SDS011;55508;54.368;18.406;2022-12-07T07:05:01;5.60;;;4.03;;
68315;SDS011;55508;54.368;18.406;2022-12-07T07:07:33;4.10;;;3.70;;
68315;SDS011;55508;54.368;18.406;2022-12-07T07:10:22;3.30;;;3.10;;
68315;SDS011;55508;54.368;18.406;2022-12-07T07:12:51;4.32;;;4.03;;
68315;SDS011;55508;54.368;18.406;2022-12-07T07:15:23;4.72;;;4.32;;
68315;SDS011;55508;54.368;18.406;2022-12-07T07:17:50;4.00;;;3.70;;
68315;SDS011;55508;54.368;18.406;2022-12-07T07:20:17;6.97;;;6.47;;
68315;SDS011;55508;54.368;18.406;2022-12-07T07:22:44;6.80;;;6.22;;
68315;SDS011;55508;54.368;18.406;2022-12-07T07:25:12;6.97;;;6.32;;
68315;SDS011;55508;54.368;18.406;2022-12-07T07:27:41;8.35;;;7.35;;
68315;SDS011;55508;54.368;18.406;2022-12-07T07:30:09;11.15;;;8.43;;
68315;SDS011;55508;54.368;18.406;2022-12-07T07:32:37;10.38;;;8.85;;
68315;SDS011;55508;54.368;18.406;2022-12-07T07:35:06;9.63;;;8.45;;
68315;SDS011;55508;54.368;18.406;2022-12-07T07:37:35;16.77;;;11.02;;
68315;SDS011;55508;54.368;18.406;2022-12-07T07:40:03;15.50;;;11.25;;
68315;SDS011;55508;54.368;18.406;2022-12-07T07:42:31;11.57;;;10.40;;
68315;SDS011;55508;54.368;18.406;2022-12-07T07:44:58;14.18;;;11.55;;
68315;SDS011;55508;54.368;18.406;2022-12-07T07:47:24;10.38;;;9.35;;
68315;SDS011;55508;54.368;18.406;2022-12-07T07:49:51;12.57;;;10.05;;
68315;SDS011;55508;54.368;18.406;2022-12-07T07:52:18;12.05;;;10.27;;
68315;SDS011;55508;54.368;18.406;2022-12-07T07:54:46;11.98;;;10.52;;
68315;SDS011;55508;54.368;18.406;2022-12-07T07:57:13;11.60;;;10.50;;
68315;SDS011;55508;54.368;18.406;2022-12-07T07:59:40;12.68;;;11.10;;
68315;SDS011;55508;54.368;18.406;2022-12-07T08:02:14;12.05;;;10.60;;
68315;SDS011;55508;54.368;18.406;2022-12-07T08:04:43;12.48;;;11.27;;
68315;SDS011;55508;54.368;18.406;2022-12-07T08:07:11;9.68;;;8.68;;
68315;SDS011;55508;54.368;18.406;2022-12-07T08:09:38;12.93;;;9.20;;
68315;SDS011;55508;54.368;18.406;2022-12-07T08:12:06;15.02;;;11.38;;
68315;SDS011;55508;54.368;18.406;2022-12-07T08:14:33;13.63;;;11.48;;
68315;SDS011;55508;54.368;18.406;2022-12-07T08:17:00;13.73;;;10.32;;
68315;SDS011;55508;54.368;18.406;2022-12-07T08:19:28;11.80;;;10.30;;
68315;SDS011;55508;54.368;18.406;2022-12-07T08:21:55;13.02;;;10.43;;
68315;SDS011;55508;54.368;18.406;2022-12-07T08:24:23;11.00;;;9.90;;
68315;SDS011;55508;54.368;18.406;2022-12-07T08:26:51;15.25;;;12.07;;
68315;SDS011;55508;54.368;18.406;2022-12-07T08:29:19;13.90;;;12.48;;
68315;SDS011;55508;54.368;18.406;2022-12-07T08:31:46;17.20;;;14.07;;
68315;SDS011;55508;54.368;18.406;2022-12-07T08:34:13;16.08;;;12.43;;
68315;SDS011;55508;54.368;18.406;2022-12-07T08:36:41;13.27;;;10.82;;
68315;SDS011;55508;54.368;18.406;2022-12-07T08:39:14;8.93;;;8.13;;
68315;SDS011;55508;54.368;18.406;2022-12-07T08:41:59;9.75;;;7.95;;
68315;SDS011;55508;54.368;18.406;2022-12-07T08:44:27;8.40;;;7.60;;
68315;SDS011;55508;54.368;18.406;2022-12-07T08:46:56;8.55;;;7.85;;
68315;SDS011;55508;54.368;18.406;2022-12-07T08:52:03;15.57;;;10.02;;
68315;SDS011;55508;54.368;18.406;2022-12-07T08:54:31;16.67;;;10.13;;
68315;SDS011;55508;54.368;18.406;2022-12-07T08:57:01;11.38;;;9.45;;
68315;SDS011;55508;54.368;18.406;2022-12-07T08:59:28;9.38;;;8.48;;
68315;SDS011;55508;54.368;18.406;2022-12-07T09:01:55;6.30;;;5.85;;
68315;SDS011;55508;54.368;18.406;2022-12-07T09:04:24;8.35;;;7.55;;
68315;SDS011;55508;54.368;18.406;2022-12-07T09:06:53;8.38;;;6.75;;
68315;SDS011;55508;54.368;18.406;2022-12-07T09:09:21;7.05;;;6.18;;
68315;SDS011;55508;54.368;18.406;2022-12-07T09:11:48;12.05;;;8.82;;
68315;SDS011;55508;54.368;18.406;2022-12-07T09:14:19;12.45;;;7.95;;
68315;SDS011;55508;54.368;18.406;2022-12-07T09:16:51;11.25;;;8.18;;
68315;SDS011;55508;54.368;18.406;2022-12-07T09:19:21;11.48;;;9.07;;
68315;SDS011;55508;54.368;18.406;2022-12-07T09:21:51;16.13;;;9.32;;
68315;SDS011;55508;54.368;18.406;2022-12-07T09:24:19;15.88;;;10.27;;
68315;SDS011;55508;54.368;18.406;2022-12-07T09:26:49;15.40;;;10.68;;
68315;SDS011;55508;54.368;18.406;2022-12-07T09:29:16;10.38;;;9.23;;
68315;SDS011;55508;54.368;18.406;2022-12-07T09:31:45;11.27;;;8.85;;
68315;SDS011;55508;54.368;18.406;2022-12-07T09:34:12;10.18;;;9.27;;
68315;SDS011;55508;54.368;18.406;2022-12-07T09:36:40;9.68;;;8.80;;
68315;SDS011;55508;54.368;18.406;2022-12-07T09:39:09;11.32;;;9.25;;
68315;SDS011;55508;54.368;18.406;2022-12-07T09:41:41;8.88;;;7.93;;
68315;SDS011;55508;54.368;18.406;2022-12-07T09:44:12;7.72;;;7.03;;
68315;SDS011;55508;54.368;18.406;2022-12-07T09:46:41;8.50;;;7.90;;
68315;SDS011;55508;54.368;18.406;2022-12-07T09:49:15;7.97;;;7.38;;
68315;SDS011;55508;54.368;18.406;2022-12-07T09:51:45;9.45;;;7.75;;
68315;SDS011;55508;54.368;18.406;2022-12-07T09:54:14;12.85;;;9.80;;
68315;SDS011;55508;54.368;18.406;2022-12-07T09:56:43;14.57;;;8.98;;
68315;SDS011;55508;54.368;18.406;2022-12-07T09:59:16;9.15;;;8.45;;
68315;SDS011;55508;54.368;18.406;2022-12-07T10:01:49;8.73;;;7.93;;
68315;SDS011;55508;54.368;18.406;2022-12-07T10:04:21;8.75;;;8.05;;
68315;SDS011;55508;54.368;18.406;2022-12-07T10:06:49;8.50;;;7.78;;
68315;SDS011;55508;54.368;18.406;2022-12-07T10:09:18;8.70;;;7.78;;
68315;SDS011;55508;54.368;18.406;2022-12-07T10:14:39;8.38;;;7.63;;
68315;SDS011;55508;54.368;18.406;2022-12-07T10:20:24;7.78;;;7.10;;
68315;SDS011;55508;54.368;18.406;2022-12-07T10:22:58;7.90;;;7.30;;
68315;SDS011;55508;54.368;18.406;2022-12-07T10:25:39;7.70;;;7.10;;
68315;SDS011;55508;54.368;18.406;2022-12-07T10:30:48;9.65;;;8.20;;
68315;SDS011;55508;54.368;18.406;2022-12-07T10:33:58;7.03;;;6.15;;
68315;SDS011;55508;54.368;18.406;2022-12-07T10:36:39;8.70;;;8.02;;
68315;SDS011;55508;54.368;18.406;2022-12-07T10:39:16;9.00;;;8.20;;
68315;SDS011;55508;54.368;18.406;2022-12-07T10:44:33;7.10;;;6.45;;
68315;SDS011;55508;54.368;18.406;2022-12-07T10:47:16;8.85;;;8.15;;
68315;SDS011;55508;54.368;18.406;2022-12-07T10:56:01;9.15;;;8.02;;
68315;SDS011;55508;54.368;18.406;2022-12-07T11:03:45;9.60;;;8.63;;
68315;SDS011;55508;54.368;18.406;2022-12-07T11:12:38;8.82;;;7.93;;
68315;SDS011;55508;54.368;18.406;2022-12-07T11:18:19;10.75;;;9.70;;
68315;SDS011;55508;54.368;18.406;2022-12-07T11:34:31;8.52;;;7.70;;
68315;SDS011;55508;54.368;18.406;2022-12-07T11:37:00;8.88;;;8.20;;
68315;SDS011;55508;54.368;18.406;2022-12-07T11:39:33;7.72;;;7.13;;
68315;SDS011;55508;54.368;18.406;2022-12-07T11:42:05;7.45;;;6.85;;
68315;SDS011;55508;54.368;18.406;2022-12-07T11:44:44;7.10;;;6.60;;
68315;SDS011;55508;54.368;18.406;2022-12-07T11:55:49;8.50;;;7.72;;
68315;SDS011;55508;54.368;18.406;2022-12-07T12:01:31;8.15;;;7.45;;
68315;SDS011;55508;54.368;18.406;2022-12-07T12:06:39;9.02;;;7.97;;
68315;SDS011;55508;54.368;18.406;2022-12-07T12:15:09;10.48;;;9.32;;
68315;SDS011;55508;54.368;18.406;2022-12-07T12:20:55;9.30;;;8.38;;
68315;SDS011;55508;54.368;18.406;2022-12-07T12:23:59;10.40;;;9.27;;
68315;SDS011;55508;54.368;18.406;2022-12-07T12:26:30;12.07;;;9.43;;
68315;SDS011;55508;54.368;18.406;2022-12-07T12:29:00;8.38;;;7.60;;
68315;SDS011;55508;54.368;18.406;2022-12-07T12:31:39;10.25;;;9.32;;
68315;SDS011;55508;54.368;18.406;2022-12-07T12:37:00;10.25;;;9.05;;
68315;SDS011;55508;54.368;18.406;2022-12-07T12:39:28;13.73;;;10.00;;
68315;SDS011;55508;54.368;18.406;2022-12-07T12:41:56;10.15;;;9.15;;
68315;SDS011;55508;54.368;18.406;2022-12-07T12:52:56;9.95;;;9.05;;
68315;SDS011;55508;54.368;18.406;2022-12-07T12:55:48;9.38;;;7.13;;
68315;SDS011;55508;54.368;18.406;2022-12-07T12:58:38;11.35;;;9.18;;
68315;SDS011;55508;54.368;18.406;2022-12-07T13:04:48;8.27;;;7.20;;
68315;SDS011;55508;54.368;18.406;2022-12-07T13:10:21;8.48;;;7.57;;
68315;SDS011;55508;54.368;18.406;2022-12-07T13:15:39;9.90;;;8.70;;
68315;SDS011;55508;54.368;18.406;2022-12-07T13:21:39;9.15;;;8.13;;
68315;SDS011;55508;54.368;18.406;2022-12-07T13:40:17;7.95;;;7.25;;
68315;SDS011;55508;54.368;18.406;2022-12-07T13:42:45;12.23;;;8.20;;
68315;SDS011;55508;54.368;18.406;2022-12-07T13:45:24;18.70;;;11.23;;
68315;SDS011;55508;54.368;18.406;2022-12-07T13:48:35;11.70;;;8.45;;
68315;SDS011;55508;54.368;18.406;2022-12-07T13:51:14;9.82;;;8.18;;
68315;SDS011;55508;54.368;18.406;2022-12-07T13:53:52;10.20;;;7.90;;
68315;SDS011;55508;54.368;18.406;2022-12-07T13:56:22;10.27;;;8.15;;
68315;SDS011;55508;54.368;18.406;2022-12-07T13:58:54;10.50;;;8.00;;
68315;SDS011;55508;54.368;18.406;2022-12-07T14:01:21;8.23;;;6.90;;
68315;SDS011;55508;54.368;18.406;2022-12-07T14:03:48;9.40;;;7.25;;
68315;SDS011;55508;54.368;18.406;2022-12-07T14:06:25;10.40;;;7.90;;
68315;SDS011;55508;54.368;18.406;2022-12-07T14:09:07;9.32;;;7.03;;
68315;SDS011;55508;54.368;18.406;2022-12-07T14:11:35;12.57;;;8.13;;
68315;SDS011;55508;54.368;18.406;2022-12-07T14:14:04;11.07;;;8.48;;
68315;SDS011;55508;54.368;18.406;2022-12-07T14:16:35;13.07;;;9.38;;
68315;SDS011;55508;54.368;18.406;2022-12-07T14:19:04;8.60;;;7.25;;
68315;SDS011;55508;54.368;18.406;2022-12-07T14:21:33;10.15;;;6.55;;
68315;SDS011;55508;54.368;18.406;2022-12-07T14:26:45;11.27;;;6.85;;
68315;SDS011;55508;54.368;18.406;2022-12-07T14:34:54;9.25;;;7.30;;
68315;SDS011;55508;54.368;18.406;2022-12-07T14:37:21;9.77;;;6.80;;
68315;SDS011;55508;54.368;18.406;2022-12-07T14:39:48;10.75;;;8.52;;
68315;SDS011;55508;54.368;18.406;2022-12-07T14:42:16;8.60;;;6.18;;
68315;SDS011;55508;54.368;18.406;2022-12-07T14:44:44;20.67;;;13.60;;
68315;SDS011;55508;54.368;18.406;2022-12-07T14:47:12;37.20;;;19.35;;
68315;SDS011;55508;54.368;18.406;2022-12-07T14:50:00;24.90;;;14.57;;
68315;SDS011;55508;54.368;18.406;2022-12-07T14:52:32;10.75;;;8.07;;
68315;SDS011;55508;54.368;18.406;2022-12-07T14:55:38;10.07;;;6.80;;
68315;SDS011;55508;54.368;18.406;2022-12-07T14:58:05;12.23;;;8.55;;
68315;SDS011;55508;54.368;18.406;2022-12-07T15:00:32;11.90;;;7.38;;
68315;SDS011;55508;54.368;18.406;2022-12-07T15:03:00;7.38;;;6.32;;
68315;SDS011;55508;54.368;18.406;2022-12-07T15:05:27;7.28;;;6.57;;
68315;SDS011;55508;54.368;18.406;2022-12-07T15:07:55;11.10;;;7.32;;
68315;SDS011;55508;54.368;18.406;2022-12-07T15:10:23;7.93;;;6.50;;
68315;SDS011;55508;54.368;18.406;2022-12-07T15:13:00;11.57;;;8.02;;
68315;SDS011;55508;54.368;18.406;2022-12-07T15:15:47;7.65;;;5.95;;
68315;SDS011;55508;54.368;18.406;2022-12-07T15:18:15;16.13;;;9.88;;
68315;SDS011;55508;54.368;18.406;2022-12-07T15:20:44;10.20;;;7.43;;
68315;SDS011;55508;54.368;18.406;2022-12-07T15:23:12;6.45;;;5.70;;
68315;SDS011;55508;54.368;18.406;2022-12-07T15:25:43;8.07;;;6.68;;
68315;SDS011;55508;54.368;18.406;2022-12-07T15:30:39;13.95;;;7.40;;
68315;SDS011;55508;54.368;18.406;2022-12-07T15:33:07;7.15;;;6.45;;
68315;SDS011;55508;54.368;18.406;2022-12-07T15:35:38;8.07;;;6.32;;
68315;SDS011;55508;54.368;18.406;2022-12-07T15:40:33;4.70;;;4.20;;
68315;SDS011;55508;54.368;18.406;2022-12-07T15:43:03;8.23;;;7.20;;
68315;SDS011;55508;54.368;18.406;2022-12-07T15:45:53;8.38;;;5.50;;
68315;SDS011;55508;54.368;18.406;2022-12-07T15:48:21;8.10;;;6.22;;
68315;SDS011;55508;54.368;18.406;2022-12-07T15:51:05;7.60;;;5.75;;
68315;SDS011;55508;54.368;18.406;2022-12-07T15:53:35;7.25;;;5.15;;
68315;SDS011;55508;54.368;18.406;2022-12-07T15:56:05;4.65;;;4.25;;
68315;SDS011;55508;54.368;18.406;2022-12-07T15:58:33;5.70;;;4.55;;
68315;SDS011;55508;54.368;18.406;2022-12-07T16:01:09;6.72;;;4.60;;
68315;SDS011;55508;54.368;18.406;2022-12-07T16:03:37;7.70;;;5.35;;
68315;SDS011;55508;54.368;18.406;2022-12-07T16:06:04;6.75;;;5.50;;
68315;SDS011;55508;54.368;18.406;2022-12-07T16:08:32;8.65;;;6.00;;
68315;SDS011;55508;54.368;18.406;2022-12-07T16:11:05;7.35;;;5.65;;
68315;SDS011;55508;54.368;18.406;2022-12-07T16:13:33;8.82;;;7.30;;
68315;SDS011;55508;54.368;18.406;2022-12-07T16:16:04;5.93;;;4.97;;
68315;SDS011;55508;54.368;18.406;2022-12-07T16:18:33;5.53;;;5.03;;
68315;SDS011;55508;54.368;18.406;2022-12-07T16:21:00;6.90;;;6.00;;
68315;SDS011;55508;54.368;18.406;2022-12-07T16:23:27;6.13;;;5.50;;
68315;SDS011;55508;54.368;18.406;2022-12-07T16:25:54;4.30;;;3.83;;
68315;SDS011;55508;54.368;18.406;2022-12-07T16:28:22;7.10;;;3.97;;
68315;SDS011;55508;54.368;18.406;2022-12-07T16:30:57;6.07;;;5.47;;
68315;SDS011;55508;54.368;18.406;2022-12-07T16:33:37;4.68;;;4.25;;
68315;SDS011;55508;54.368;18.406;2022-12-07T16:36:05;5.72;;;5.22;;
68315;SDS011;55508;54.368;18.406;2022-12-07T16:38:33;5.03;;;4.53;;
68315;SDS011;55508;54.368;18.406;2022-12-07T16:41:02;9.93;;;7.82;;
68315;SDS011;55508;54.368;18.406;2022-12-07T16:43:29;6.65;;;4.68;;
68315;SDS011;55508;54.368;18.406;2022-12-07T16:45:56;9.57;;;5.97;;
68315;SDS011;55508;54.368;18.406;2022-12-07T16:48:23;9.95;;;5.35;;
68315;SDS011;55508;54.368;18.406;2022-12-07T16:50:50;12.35;;;7.88;;
68315;SDS011;55508;54.368;18.406;2022-12-07T16:53:20;11.73;;;8.05;;
68315;SDS011;55508;54.368;18.406;2022-12-07T16:55:49;9.38;;;7.07;;
68315;SDS011;55508;54.368;18.406;2022-12-07T16:58:17;14.25;;;9.38;;
68315;SDS011;55508;54.368;18.406;2022-12-07T17:00:44;14.20;;;9.02;;
68315;SDS011;55508;54.368;18.406;2022-12-07T17:03:12;15.48;;;9.57;;
68315;SDS011;55508;54.368;18.406;2022-12-07T17:05:46;6.45;;;4.72;;
68315;SDS011;55508;54.368;18.406;2022-12-07T17:08:14;11.48;;;7.57;;
68315;SDS011;55508;54.368;18.406;2022-12-07T17:10:42;8.77;;;7.50;;
68315;SDS011;55508;54.368;18.406;2022-12-07T17:13:11;7.07;;;5.18;;
68315;SDS011;55508;54.368;18.406;2022-12-07T17:16:03;11.05;;;7.35;;
68315;SDS011;55508;54.368;18.406;2022-12-07T17:18:33;8.55;;;6.70;;
68315;SDS011;55508;54.368;18.406;2022-12-07T17:21:03;14.07;;;7.88;;
68315;SDS011;55508;54.368;18.406;2022-12-07T17:23:31;18.77;;;9.70;;
68315;SDS011;55508;54.368;18.406;2022-12-07T17:26:09;12.52;;;6.32;;
68315;SDS011;55508;54.368;18.406;2022-12-07T17:28:41;21.80;;;12.32;;
68315;SDS011;55508;54.368;18.406;2022-12-07T17:31:10;16.52;;;9.40;;
68315;SDS011;55508;54.368;18.406;2022-12-07T17:33:38;27.25;;;13.57;;
68315;SDS011;55508;54.368;18.406;2022-12-07T17:36:16;19.63;;;11.15;;
68315;SDS011;55508;54.368;18.406;2022-12-07T17:38:47;14.50;;;9.18;;